createdAt,value
2023-03-26T00:01:00.907Z,70.90
2023-03-26T00:03:28.033Z,71.10
2023-03-26T00:06:06.379Z,70.90
2023-03-26T00:08:37.109Z,70.80
2023-03-26T00:11:04.715Z,71.00
2023-03-26T00:13:32.445Z,71.20
2023-03-26T00:15:59.783Z,71.20
2023-03-26T00:18:30.908Z,71.20
2023-03-26T00:20:58.759Z,71.40
2023-03-26T00:23:27.349Z,71.40
2023-03-26T00:25:55.020Z,71.20
2023-03-26T00:28:23.237Z,71.20
2023-03-26T00:30:50.727Z,71.30
2023-03-26T00:33:17.726Z,71.30
2023-03-26T00:35:47.438Z,71.60
2023-03-26T00:38:15.066Z,71.50
2023-03-26T00:40:48.235Z,71.40
2023-03-26T00:43:21.197Z,71.30
2023-03-26T00:45:49.054Z,71.20
2023-03-26T00:48:16.905Z,71.30
2023-03-26T00:50:45.720Z,71.30
2023-03-26T00:53:13.943Z,71.40
2023-03-26T00:55:45.276Z,71.40
2023-03-26T00:58:12.924Z,71.40
2023-03-26T01:00:45.696Z,71.30
2023-03-26T01:03:24.857Z,71.20
2023-03-26T01:06:08.252Z,71.30
2023-03-26T01:08:45.437Z,71.40
2023-03-26T01:11:14.299Z,71.30
2023-03-26T01:13:44.129Z,71.30
2023-03-26T01:16:20.681Z,71.20
2023-03-26T01:18:48.799Z,71.20
2023-03-26T01:21:22.892Z,70.90
2023-03-26T01:24:00.668Z,70.80
2023-03-26T01:26:54.276Z,70.80
2023-03-26T01:29:32.983Z,70.70
2023-03-26T01:32:06.575Z,70.60
2023-03-26T01:34:42.494Z,70.50
2023-03-26T01:37:09.345Z,70.40
2023-03-26T01:39:40.687Z,70.60
2023-03-26T01:42:16.959Z,70.60
2023-03-26T01:45:04.048Z,70.60
2023-03-26T01:47:31.290Z,70.60
2023-03-26T01:49:58.223Z,70.50
2023-03-26T01:52:26.427Z,70.60
2023-03-26T01:54:57.803Z,70.60
2023-03-26T01:57:27.718Z,70.50
2023-03-26T02:00:13.143Z,70.50
2023-03-26T02:02:40.148Z,70.40
2023-03-26T02:05:14.078Z,70.50
2023-03-26T02:07:51.218Z,70.60
2023-03-26T02:10:22.814Z,70.70
2023-03-26T02:12:50.431Z,70.50
2023-03-26T02:15:17.630Z,70.50
2023-03-26T02:17:44.470Z,70.40
2023-03-26T02:20:12.476Z,70.40
2023-03-26T02:22:45.920Z,70.20
2023-03-26T02:25:17.367Z,69.90
2023-03-26T02:27:44.734Z,69.60
2023-03-26T02:30:13.898Z,69.30
2023-03-26T02:32:40.812Z,69.10
2023-03-26T02:35:07.871Z,68.90
2023-03-26T02:37:34.704Z,68.70
2023-03-26T02:40:01.827Z,68.40
2023-03-26T02:42:28.678Z,68.20
2023-03-26T02:44:55.629Z,68.00
2023-03-26T02:47:25.984Z,67.80
2023-03-26T02:49:57.359Z,67.60
2023-03-26T02:52:24.338Z,67.50
2023-03-26T02:54:51.223Z,67.20
2023-03-26T02:57:18.048Z,67.00
2023-03-26T02:59:46.520Z,66.60
2023-03-26T03:02:16.291Z,66.20
2023-03-26T03:04:44.202Z,66.10
2023-03-26T03:07:14.533Z,66.10
2023-03-26T03:09:41.706Z,66.00
2023-03-26T03:12:08.634Z,65.90
2023-03-26T03:14:36.021Z,65.80
2023-03-26T03:17:02.926Z,65.70
2023-03-26T03:19:29.819Z,65.50
2023-03-26T03:21:56.728Z,65.50
2023-03-26T03:24:23.612Z,65.30
2023-03-26T03:26:55.159Z,65.20
2023-03-26T03:29:22.002Z,65.10
2023-03-26T03:31:48.875Z,65.00
2023-03-26T03:34:16.031Z,64.90
2023-03-26T03:36:42.960Z,64.70
2023-03-26T03:39:09.838Z,64.70
2023-03-26T03:41:36.748Z,64.70
2023-03-26T03:44:03.681Z,64.70
2023-03-26T03:46:30.794Z,64.70
2023-03-26T03:48:57.814Z,64.60
2023-03-26T03:51:24.668Z,64.40
2023-03-26T03:53:52.907Z,64.40
2023-03-26T03:56:24.242Z,64.40
2023-03-26T03:58:51.714Z,64.10
2023-03-26T04:01:18.896Z,64.00
2023-03-26T04:03:46.956Z,64.00
2023-03-26T04:06:14.255Z,64.00
2023-03-26T04:08:41.197Z,63.80
2023-03-26T04:11:08.111Z,63.80
2023-03-26T04:13:35.181Z,63.70
2023-03-26T04:16:02.158Z,63.60
2023-03-26T04:18:30.389Z,63.50
2023-03-26T04:20:57.368Z,63.40
2023-03-26T04:23:24.599Z,63.30
2023-03-26T04:25:54.172Z,63.10
2023-03-26T04:28:28.366Z,63.00
2023-03-26T04:30:55.855Z,62.90
2023-03-26T04:33:22.826Z,62.90
2023-03-26T04:35:49.779Z,62.70
2023-03-26T04:38:16.965Z,62.50
2023-03-26T04:40:47.421Z,62.50
2023-03-26T04:43:16.548Z,62.60
2023-03-26T04:45:43.927Z,62.50
2023-03-26T04:48:15.225Z,62.50
2023-03-26T04:50:42.971Z,62.40
2023-03-26T04:53:17.335Z,62.20
2023-03-26T04:55:47.148Z,62.00
2023-03-26T04:58:14.177Z,61.90
2023-03-26T05:00:41.546Z,61.90
2023-03-26T05:03:12.112Z,62.00
2023-03-26T05:05:40.093Z,62.00
2023-03-26T05:08:07.127Z,62.00
2023-03-26T05:10:34.392Z,61.90
2023-03-26T05:13:01.721Z,61.70
2023-03-26T05:15:28.560Z,61.70
2023-03-26T05:17:55.879Z,61.70
2023-03-26T05:20:24.702Z,61.70
2023-03-26T05:22:51.720Z,61.60
2023-03-26T05:25:19.100Z,61.60
2023-03-26T05:27:46.213Z,61.50
2023-03-26T05:30:17.458Z,61.50
2023-03-26T05:32:44.465Z,61.40
2023-03-26T05:35:12.811Z,61.40
2023-03-26T05:37:40.337Z,61.30
2023-03-26T05:40:12.440Z,61.30
2023-03-26T05:42:39.985Z,61.30
2023-03-26T05:45:11.328Z,61.20
2023-03-26T05:47:38.271Z,61.20
2023-03-26T05:50:06.576Z,61.30
2023-03-26T05:52:33.817Z,61.30
2023-03-26T05:55:00.827Z,61.20
2023-03-26T05:57:29.715Z,61.20
2023-03-26T05:59:56.817Z,61.30
2023-03-26T06:02:24.004Z,61.30
2023-03-26T06:04:51.273Z,61.30
2023-03-26T06:07:19.971Z,61.30
2023-03-26T06:09:46.902Z,61.30
2023-03-26T06:12:14.138Z,61.20
2023-03-26T06:14:42.988Z,61.30
2023-03-26T06:17:10.515Z,61.20
2023-03-26T06:19:37.606Z,61.20
2023-03-26T06:22:05.068Z,61.00
2023-03-26T06:24:32.592Z,60.90
2023-03-26T06:26:59.516Z,60.90
2023-03-26T06:29:27.208Z,60.60
2023-03-26T06:31:54.267Z,60.70
2023-03-26T06:34:21.272Z,60.60
2023-03-26T06:36:49.014Z,60.60
2023-03-26T06:39:16.368Z,60.60
2023-03-26T06:41:43.408Z,60.60
2023-03-26T06:44:11.475Z,60.70
2023-03-26T06:46:38.428Z,60.50
2023-03-26T06:49:05.664Z,60.40
2023-03-26T06:51:32.650Z,60.50
2023-03-26T06:53:59.631Z,60.40
2023-03-26T06:56:26.554Z,60.30
2023-03-26T06:58:53.522Z,60.30
2023-03-26T07:01:20.597Z,60.30
2023-03-26T07:03:47.529Z,60.20
2023-03-26T07:06:14.593Z,60.10
2023-03-26T07:08:41.638Z,60.00
2023-03-26T07:11:08.753Z,60.10
2023-03-26T07:13:36.739Z,60.00
2023-03-26T07:16:03.763Z,60.10
2023-03-26T07:18:31.035Z,60.10
2023-03-26T07:20:58.131Z,60.00
2023-03-26T07:23:25.312Z,59.60
2023-03-26T07:25:52.434Z,59.50
2023-03-26T07:28:20.774Z,59.30
2023-03-26T07:30:57.361Z,59.40
2023-03-26T07:33:43.263Z,59.30
2023-03-26T07:36:16.266Z,59.40
2023-03-26T07:38:51.311Z,59.40
2023-03-26T07:41:30.457Z,59.10
2023-03-26T07:44:12.959Z,58.70
2023-03-26T07:46:41.660Z,58.40
2023-03-26T07:49:14.855Z,58.00
2023-03-26T07:51:41.875Z,57.80
2023-03-26T07:54:10.214Z,57.80
2023-03-26T07:56:38.792Z,58.00
2023-03-26T07:59:10.763Z,58.10
2023-03-26T08:01:57.837Z,57.70
2023-03-26T08:04:43.871Z,57.60
2023-03-26T08:07:15.233Z,57.30
2023-03-26T08:09:45.169Z,56.90
2023-03-26T08:12:24.722Z,56.80
2023-03-26T08:14:57.692Z,57.00
2023-03-26T08:17:33.749Z,56.90
2023-03-26T08:20:25.211Z,56.90
2023-03-26T08:22:56.697Z,56.80
2023-03-26T08:25:35.182Z,56.60
2023-03-26T08:28:26.984Z,56.40
2023-03-26T08:30:57.442Z,56.30
2023-03-26T08:33:27.276Z,56.20
2023-03-26T08:35:54.216Z,56.20
2023-03-26T08:38:21.699Z,55.80
2023-03-26T08:40:57.692Z,55.70
2023-03-26T08:43:43.301Z,55.50
2023-03-26T08:46:19.402Z,55.40
2023-03-26T08:48:46.396Z,55.40
2023-03-26T08:51:13.714Z,55.40
2023-03-26T08:53:59.316Z,55.30
2023-03-26T08:56:28.983Z,55.20
2023-03-26T08:59:11.171Z,54.90
2023-03-26T09:01:56.623Z,54.80
2023-03-26T09:04:36.063Z,54.60
2023-03-26T09:07:15.610Z,54.30
2023-03-26T09:09:46.160Z,54.60
2023-03-26T09:12:15.916Z,54.40
2023-03-26T09:15:01.399Z,54.20
2023-03-26T09:17:46.904Z,54.00
2023-03-26T09:20:31.293Z,53.50
2023-03-26T09:23:13.902Z,53.30
2023-03-26T09:25:43.338Z,53.10
2023-03-26T09:28:16.464Z,53.00
2023-03-26T09:30:55.440Z,52.90
2023-03-26T09:33:32.284Z,52.70
2023-03-26T09:36:18.720Z,52.40
2023-03-26T09:39:06.158Z,52.10
2023-03-26T09:41:33.017Z,51.20
2023-03-26T09:44:02.744Z,51.00
2023-03-26T09:46:36.417Z,51.10
2023-03-26T09:49:23.104Z,50.60
2023-03-26T09:51:49.986Z,50.40
2023-03-26T09:54:39.528Z,50.10
2023-03-26T09:57:29.489Z,50.00
2023-03-26T10:00:05.010Z,49.80
2023-03-26T10:02:45.363Z,49.80
2023-03-26T10:05:27.009Z,49.50
2023-03-26T10:07:53.975Z,49.30
2023-03-26T10:10:36.143Z,49.20
2023-03-26T10:13:24.038Z,48.80
2023-03-26T10:16:05.488Z,48.00
2023-03-26T10:18:35.784Z,47.50
2023-03-26T10:21:05.884Z,47.20
2023-03-26T10:23:36.334Z,46.90
2023-03-26T10:26:09.527Z,46.70
2023-03-26T10:28:42.683Z,46.60
2023-03-26T10:31:39.162Z,46.60
2023-03-26T10:34:31.192Z,46.50
2023-03-26T10:37:09.184Z,46.50
2023-03-26T10:39:45.563Z,46.40
2023-03-26T10:42:12.569Z,46.20
2023-03-26T10:44:43.535Z,46.10
2023-03-26T10:47:33.619Z,46.20
2023-03-26T10:50:03.681Z,46.50
2023-03-26T10:52:39.471Z,46.80
2023-03-26T10:55:35.523Z,47.10
2023-03-26T10:58:14.491Z,47.40
2023-03-26T11:00:48.607Z,47.70
2023-03-26T11:03:31.137Z,47.90
2023-03-26T11:06:16.900Z,48.00
2023-03-26T11:08:46.686Z,48.20
2023-03-26T11:11:13.540Z,48.50
2023-03-26T11:13:54.539Z,48.60
2023-03-26T11:16:30.577Z,48.90
2023-03-26T11:19:13.156Z,49.20
2023-03-26T11:21:40.028Z,49.10
2023-03-26T11:24:06.911Z,49.20
2023-03-26T11:26:56.042Z,49.10
2023-03-26T11:29:33.435Z,49.20
2023-03-26T11:32:06.387Z,49.20
2023-03-26T11:34:56.655Z,49.00
2023-03-26T11:37:33.221Z,48.90
2023-03-26T11:40:01.197Z,49.20
2023-03-26T11:42:29.964Z,49.30
2023-03-26T11:44:59.225Z,49.40
2023-03-26T11:47:33.068Z,49.50
2023-03-26T11:50:00.733Z,49.50
2023-03-26T11:52:28.418Z,49.40
2023-03-26T11:54:58.597Z,49.20
2023-03-26T11:57:28.099Z,49.00
2023-03-26T11:59:59.166Z,48.80
2023-03-26T12:02:29.693Z,48.90
2023-03-26T12:05:05.818Z,48.90
2023-03-26T12:07:33.971Z,49.00
2023-03-26T12:10:19.035Z,48.80
2023-03-26T12:12:47.898Z,48.70
2023-03-26T12:15:19.473Z,48.60
2023-03-26T12:17:47.480Z,48.50
2023-03-26T12:20:26.708Z,48.40
2023-03-26T12:23:00.798Z,48.30
2023-03-26T12:25:38.805Z,48.10
2023-03-26T12:28:17.546Z,48.20
2023-03-26T12:31:18.487Z,48.20
2023-03-26T12:33:46.985Z,48.20
2023-03-26T12:36:17.026Z,48.20
2023-03-26T12:38:46.345Z,48.10
2023-03-26T12:42:52.812Z,48.10
2023-03-26T12:44:54.606Z,48.00
2023-03-26T12:48:01.620Z,48.00
2023-03-26T12:50:34.077Z,48.00
2023-03-26T12:53:02.757Z,48.20
2023-03-26T12:55:48.548Z,48.20
2023-03-26T12:58:26.029Z,48.10
2023-03-26T13:00:58.912Z,48.20
2023-03-26T13:03:38.204Z,48.20
2023-03-26T13:06:11.148Z,48.30
2023-03-26T13:08:50.507Z,48.40
2023-03-26T13:11:23.830Z,48.40
2023-03-26T13:14:09.546Z,48.40
2023-03-26T13:16:42.700Z,48.40
2023-03-26T13:19:15.632Z,48.50
2023-03-26T13:21:57.854Z,48.50
2023-03-26T13:24:30.931Z,48.60
2023-03-26T13:27:09.902Z,48.70
2023-03-26T13:29:56.483Z,48.80
2023-03-26T13:32:30.394Z,49.00
2023-03-26T13:35:08.931Z,48.90
2023-03-26T13:37:46.782Z,48.80
2023-03-26T13:40:16.641Z,48.80
2023-03-26T13:43:03.875Z,48.80
2023-03-26T13:45:39.489Z,48.80
2023-03-26T13:48:12.113Z,48.80
2023-03-26T13:50:41.470Z,49.00
2023-03-26T13:53:12.619Z,49.10
2023-03-26T13:55:39.604Z,49.40
2023-03-26T13:58:12.360Z,49.90
2023-03-26T14:00:58.692Z,50.30
2023-03-26T14:03:29.882Z,50.80
2023-03-26T14:05:58.981Z,51.30
2023-03-26T14:08:30.155Z,51.70
2023-03-26T14:11:08.033Z,52.00
2023-03-26T14:13:56.415Z,52.30
2023-03-26T14:16:55.668Z,52.70
2023-03-26T14:19:28.628Z,52.90
2023-03-26T14:21:58.233Z,53.20
2023-03-26T14:24:33.249Z,53.60
2023-03-26T14:27:18.087Z,54.10
2023-03-26T14:30:11.629Z,54.60
2023-03-26T14:32:39.271Z,55.20
2023-03-26T14:35:12.207Z,55.90
2023-03-26T14:37:42.529Z,56.50
2023-03-26T14:40:27.574Z,56.90
2023-03-26T14:43:12.925Z,57.50
2023-03-26T14:45:42.477Z,58.00
2023-03-26T14:48:27.860Z,58.60
2023-03-26T14:50:55.005Z,58.90
2023-03-26T14:53:28.882Z,59.30
2023-03-26T14:56:15.648Z,59.50
2023-03-26T14:58:45.540Z,59.70
2023-03-26T15:01:12.512Z,59.90
2023-03-26T15:03:58.460Z,60.00
2023-03-26T15:06:34.504Z,60.10
2023-03-26T15:09:24.121Z,60.20
2023-03-26T15:12:12.118Z,60.30
2023-03-26T15:14:58.635Z,60.50
2023-03-26T15:17:37.949Z,60.70
2023-03-26T15:20:26.576Z,60.80
2023-03-26T15:23:18.545Z,61.00
2023-03-26T15:25:45.478Z,61.10
2023-03-26T15:28:32.647Z,61.30
2023-03-26T15:31:19.923Z,61.30
2023-03-26T15:33:46.851Z,61.30
2023-03-26T15:36:26.523Z,61.40
2023-03-26T15:39:12.260Z,61.50
2023-03-26T15:41:52.024Z,61.60
2023-03-26T15:44:25.525Z,61.80
2023-03-26T15:47:18.496Z,61.90
2023-03-26T15:49:53.928Z,62.00
2023-03-26T15:52:26.948Z,62.10
2023-03-26T15:55:01.417Z,62.20
2023-03-26T15:57:39.422Z,62.30
2023-03-26T16:00:16.579Z,62.40
2023-03-26T16:03:09.969Z,62.40
2023-03-26T16:05:37.434Z,62.50
2023-03-26T16:08:14.966Z,62.50
2023-03-26T16:10:56.251Z,62.60
2023-03-26T16:13:23.532Z,62.70
2023-03-26T16:15:56.211Z,62.90
2023-03-26T16:18:26.458Z,63.00
2023-03-26T16:21:05.193Z,63.10
2023-03-26T16:23:47.574Z,63.20
2023-03-26T16:26:37.414Z,63.20
2023-03-26T16:29:14.917Z,63.30
2023-03-26T16:32:11.188Z,63.20
2023-03-26T16:34:50.764Z,63.20
2023-03-26T16:37:26.783Z,63.30
2023-03-26T16:39:54.734Z,63.20
2023-03-26T16:42:22.428Z,63.20
2023-03-26T16:44:55.317Z,63.20
2023-03-26T16:47:22.237Z,63.30
2023-03-26T16:50:08.802Z,63.20
2023-03-26T16:52:46.619Z,63.20
2023-03-26T16:55:20.086Z,63.20
2023-03-26T16:57:56.369Z,63.20
2023-03-26T17:00:43.764Z,63.10
2023-03-26T17:03:24.427Z,63.10
2023-03-26T17:05:54.354Z,63.00
2023-03-26T17:08:35.939Z,62.90
2023-03-26T17:11:04.194Z,62.70
2023-03-26T17:13:44.304Z,62.20
2023-03-26T17:16:14.242Z,62.10
2023-03-26T17:18:47.209Z,61.90
2023-03-26T17:21:17.590Z,61.90
2023-03-26T17:23:56.593Z,61.60
2023-03-26T17:26:35.224Z,61.60
2023-03-26T17:29:20.658Z,61.30
2023-03-26T17:31:59.962Z,61.20
2023-03-26T17:34:39.123Z,60.80
2023-03-26T17:37:26.602Z,60.70
2023-03-26T17:39:53.522Z,60.60
2023-03-26T17:42:20.443Z,60.60
2023-03-26T17:44:47.413Z,60.50
2023-03-26T17:47:41.291Z,60.50
2023-03-26T17:50:11.056Z,60.50
2023-03-26T17:52:41.901Z,60.50
2023-03-26T17:55:10.662Z,60.50
2023-03-26T17:57:42.790Z,60.50
2023-03-26T18:00:18.684Z,60.50
2023-03-26T18:02:57.614Z,60.60
2023-03-26T18:05:26.788Z,60.60
2023-03-26T18:07:53.727Z,60.50
2023-03-26T18:10:24.747Z,60.50
2023-03-26T18:12:52.035Z,60.50
2023-03-26T18:15:27.688Z,60.50
2023-03-26T18:18:18.262Z,60.50
2023-03-26T18:20:47.343Z,60.50
2023-03-26T18:23:26.694Z,60.50
2023-03-26T18:25:58.630Z,60.50
2023-03-26T18:28:29.935Z,60.40
2023-03-26T18:31:07.010Z,60.50
2023-03-26T18:33:42.131Z,60.50
2023-03-26T18:36:11.382Z,60.40
2023-03-26T18:38:40.014Z,60.40
2023-03-26T18:41:15.552Z,60.40
2023-03-26T18:43:44.691Z,60.40
2023-03-26T18:46:13.614Z,60.30
2023-03-26T18:48:41.090Z,60.20
2023-03-26T18:51:08.584Z,60.30
2023-03-26T18:53:41.001Z,60.30
2023-03-26T18:56:27.683Z,60.30
2023-03-26T18:58:57.744Z,60.30
2023-03-26T19:01:26.343Z,60.50
2023-03-26T19:03:54.067Z,60.60
2023-03-26T19:06:21.392Z,60.90
2023-03-26T19:08:48.610Z,60.90
2023-03-26T19:11:16.991Z,60.90
2023-03-26T19:13:44.349Z,61.20
2023-03-26T19:16:23.615Z,61.30
2023-03-26T19:18:51.133Z,61.40
2023-03-26T19:21:19.984Z,61.40
2023-03-26T19:23:47.417Z,61.40
2023-03-26T19:26:14.666Z,61.40
2023-03-26T19:28:53.506Z,61.40
2023-03-26T19:31:27.397Z,61.50
2023-03-26T19:33:56.164Z,61.80
2023-03-26T19:36:29.784Z,61.90
2023-03-26T19:38:59.735Z,62.00
2023-03-26T19:41:30.368Z,62.10
2023-03-26T19:44:01.526Z,62.30
2023-03-26T19:46:32.365Z,62.50
2023-03-26T19:49:00.145Z,62.80
2023-03-26T19:51:34.802Z,62.90
2023-03-26T19:54:06.705Z,63.00
2023-03-26T19:56:33.969Z,63.30
2023-03-26T19:59:00.989Z,63.40
2023-03-26T20:01:29.796Z,63.40
2023-03-26T20:04:06.611Z,63.50
2023-03-26T20:06:43.364Z,63.50
2023-03-26T20:09:11.893Z,63.60
2023-03-26T20:11:39.962Z,63.50
2023-03-26T20:14:14.479Z,63.50
2023-03-26T20:16:43.862Z,63.60
2023-03-26T20:19:14.343Z,63.60
2023-03-26T20:21:41.878Z,63.60
2023-03-26T20:24:13.484Z,63.50
2023-03-26T20:26:40.517Z,63.60
2023-03-26T20:29:07.444Z,63.60
2023-03-26T20:31:34.420Z,63.60
2023-03-26T20:34:02.653Z,63.60
2023-03-26T20:36:34.232Z,63.50
2023-03-26T20:39:08.410Z,63.50
2023-03-26T20:41:36.100Z,63.40
2023-03-26T20:44:05.078Z,63.40
2023-03-26T20:46:33.368Z,63.50
2023-03-26T20:49:00.396Z,63.60
2023-03-26T20:51:28.995Z,63.80
2023-03-26T20:53:56.465Z,64.00
2023-03-26T20:56:23.567Z,64.10
2023-03-26T20:59:03.730Z,64.10
2023-03-26T21:01:35.205Z,64.40
2023-03-26T21:04:04.436Z,64.40
2023-03-26T21:06:31.793Z,64.40
2023-03-26T21:08:59.021Z,64.60
2023-03-26T21:11:37.785Z,64.60
2023-03-26T21:14:10.213Z,64.60
2023-03-26T21:16:37.584Z,64.60
2023-03-26T21:19:04.665Z,64.70
2023-03-26T21:21:37.775Z,64.80
2023-03-26T21:24:24.067Z,64.70
2023-03-26T21:27:01.762Z,64.80
2023-03-26T21:29:29.084Z,64.80
2023-03-26T21:31:56.086Z,64.80
2023-03-26T21:34:23.098Z,64.70
2023-03-26T21:36:50.786Z,64.70
2023-03-26T21:39:18.377Z,64.70
2023-03-26T21:41:47.854Z,64.70
2023-03-26T21:44:16.514Z,64.60
2023-03-26T21:46:44.054Z,64.50
2023-03-26T21:49:12.049Z,64.40
2023-03-26T21:51:39.099Z,64.30
2023-03-26T21:54:11.840Z,64.00
2023-03-26T21:56:38.685Z,63.90
2023-03-26T21:59:24.346Z,63.60
2023-03-26T22:01:54.031Z,63.30
2023-03-26T22:04:39.634Z,63.20
2023-03-26T22:07:12.793Z,63.00
2023-03-26T22:09:39.870Z,63.00
2023-03-26T22:12:06.851Z,62.80
2023-03-26T22:14:34.814Z,62.80
2023-03-26T22:17:01.807Z,62.70
2023-03-26T22:19:30.403Z,62.60
2023-03-26T22:21:58.668Z,62.50
2023-03-26T22:24:26.500Z,62.30
2023-03-26T22:26:53.654Z,62.20
2023-03-26T22:29:20.621Z,62.10
2023-03-26T22:31:47.717Z,61.80
2023-03-26T22:34:14.579Z,61.80
2023-03-26T22:36:41.496Z,61.60
2023-03-26T22:39:08.362Z,61.40
2023-03-26T22:41:35.274Z,61.40
2023-03-26T22:44:16.958Z,61.50
2023-03-26T22:46:49.457Z,61.80
2023-03-26T22:49:16.940Z,62.20
2023-03-26T22:51:44.167Z,62.40
2023-03-26T22:54:11.077Z,62.70
2023-03-26T22:56:38.159Z,63.10
2023-03-26T22:59:05.168Z,63.30
2023-03-26T23:01:32.276Z,63.60
2023-03-26T23:03:59.182Z,63.80
2023-03-26T23:06:26.609Z,64.10
2023-03-26T23:08:54.600Z,64.40
2023-03-26T23:11:22.323Z,64.80
2023-03-26T23:13:49.605Z,65.10
2023-03-26T23:16:17.350Z,65.10
2023-03-26T23:18:44.834Z,65.40
2023-03-26T23:21:16.396Z,65.60
2023-03-26T23:23:43.296Z,65.70
2023-03-26T23:26:10.883Z,65.80
2023-03-26T23:28:38.465Z,66.00
2023-03-26T23:31:06.683Z,66.30
2023-03-26T23:33:35.591Z,66.50
2023-03-26T23:36:07.472Z,66.70
2023-03-26T23:38:44.282Z,66.80
2023-03-26T23:41:15.440Z,66.80
2023-03-26T23:43:53.878Z,66.80
2023-03-26T23:46:24.628Z,67.00
2023-03-26T23:48:52.234Z,67.10
2023-03-26T23:51:22.550Z,67.30
2023-03-26T23:53:49.677Z,67.50
2023-03-26T23:56:17.187Z,67.50
2023-03-26T23:58:44.179Z,67.50
